Time;durP1;ratioP1;P1;durP2;ratioP2;P2;SDS_P1;SDS_P2;PMS_P1;PMS_P2;Temp;Humidity;BMP_temperature;BMP_pressure;BME280_temperature;BME280_humidity;BME280_pressure;Samples;Min_cycle;Max_cycle;Signal;HPM_P1;HPM_P2
2022/10/25 04:01:29;;;;;;;4.10;3.10;;;;;;;;;;5483458;23;20455;-87
2022/10/25 04:04:04;;;;;;;3.60;2.97;;;;;;;;;;5027639;28;20478;-86
2022/10/25 04:06:33;;;;;;;2.93;2.70;;;;;;;;;;5032210;28;20785;-87
2022/10/25 04:08:59;;;;;;;2.80;2.60;;;;;;;;;;5017268;28;20392;-87
2022/10/25 04:11:25;;;;;;;4.15;3.35;;;;;;;;;;5032203;28;20386;-87
2022/10/25 04:13:50;;;;;;;3.63;3.33;;;;;;;;;;5032431;28;20457;-87
2022/10/25 04:16:17;;;;;;;3.58;3.28;;;;;;;;;;5033336;28;20405;-87
2022/10/25 04:18:43;;;;;;;3.80;3.40;;;;;;;;;;5033528;28;20375;-87
2022/10/25 04:21:18;;;;;;;3.72;3.03;;;;;;;;;;5029255;28;20419;-87
2022/10/25 04:23:43;;;;;;;3.42;3.22;;;;;;;;;;5033252;28;20383;-87
2022/10/25 04:26:24;;;;;;;3.90;3.60;;;;;;;;;;5033193;28;20907;-86
2022/10/25 04:28:51;;;;;;;4.10;3.72;;;;;;;;;;5033449;28;20379;-87
2022/10/25 04:31:17;;;;;;;4.43;4.03;;;;;;;;;;5032855;28;20853;-87
2022/10/25 04:33:43;;;;;;;4.70;4.30;;;;;;;;;;5033199;28;20415;-88
2022/10/25 04:36:09;;;;;;;5.45;4.32;;;;;;;;;;5033095;28;20418;-86
2022/10/25 04:38:38;;;;;;;4.47;4.13;;;;;;;;;;5032799;28;20868;-87
2022/10/25 04:41:04;;;;;;;4.50;4.20;;;;;;;;;;5032687;28;20406;-87
2022/10/25 04:43:30;;;;;;;4.18;3.88;;;;;;;;;;5032217;28;20379;-87
2022/10/25 04:46:01;;;;;;;4.60;4.20;;;;;;;;;;5028936;28;20385;-87
2022/10/25 04:48:30;;;;;;;4.22;3.90;;;;;;;;;;5022944;28;20383;-87
2022/10/25 04:50:59;;;;;;;4.60;4.20;;;;;;;;;;5032399;28;20379;-87
2022/10/25 04:53:25;;;;;;;4.20;3.80;;;;;;;;;;4995742;28;20394;-86
2022/10/25 04:56:05;;;;;;;4.10;3.78;;;;;;;;;;5000696;28;20398;-87
2022/10/25 04:58:32;;;;;;;4.90;4.22;;;;;;;;;;4995725;28;20487;-87
2022/10/25 05:01:03;;;;;;;4.50;4.18;;;;;;;;;;5007660;28;20410;-87
2022/10/25 05:03:29;;;;;;;4.55;4.25;;;;;;;;;;5003927;28;20386;-87
2022/10/25 05:06:03;;;;;;;5.00;4.50;;;;;;;;;;5031067;28;20393;-86
2022/10/25 05:08:38;;;;;;;4.70;4.28;;;;;;;;;;5030846;28;20443;-87
2022/10/25 05:11:05;;;;;;;4.32;3.92;;;;;;;;;;5030985;28;20384;-87
2022/10/25 05:13:32;;;;;;;5.50;5.00;;;;;;;;;;5032203;28;20379;-87
2022/10/25 05:15:58;;;;;;;4.70;4.30;;;;;;;;;;5015718;28;20403;-87
2022/10/25 05:18:24;;;;;;;5.20;4.72;;;;;;;;;;4997926;28;20390;-87
2022/10/25 05:20:54;;;;;;;5.57;5.07;;;;;;;;;;4996902;28;20908;-87
2022/10/25 05:23:20;;;;;;;5.75;5.25;;;;;;;;;;5009360;28;20899;-86
2022/10/25 05:25:46;;;;;;;5.63;5.13;;;;;;;;;;5013366;28;20418;-87
2022/10/25 05:28:15;;;;;;;5.57;4.88;;;;;;;;;;5021054;28;20466;-88
2022/10/25 05:30:42;;;;;;;6.00;5.20;;;;;;;;;;5032126;28;20379;-88
2022/10/25 05:33:10;;;;;;;5.20;4.80;;;;;;;;;;5031072;28;20384;-87
2022/10/25 05:35:36;;;;;;;5.65;5.13;;;;;;;;;;5032194;28;20421;-88
2022/10/25 05:38:02;;;;;;;5.13;4.72;;;;;;;;;;5032029;28;20397;-87
2022/10/25 05:40:31;;;;;;;4.60;4.27;;;;;;;;;;5015533;28;20394;-87
2022/10/25 05:42:57;;;;;;;5.32;4.82;;;;;;;;;;4996806;28;20390;-87
2022/10/25 05:45:23;;;;;;;5.10;4.70;;;;;;;;;;4998040;28;20411;-87
2022/10/25 05:47:49;;;;;;;6.20;5.57;;;;;;;;;;4994909;28;20431;-87
2022/10/25 05:50:15;;;;;;;5.20;4.80;;;;;;;;;;4996019;28;20386;-87
2022/10/25 05:52:45;;;;;;;5.60;5.20;;;;;;;;;;4993173;28;20382;-88
2022/10/25 05:55:13;;;;;;;5.88;5.30;;;;;;;;;;4996012;28;20382;-88
2022/10/25 05:57:42;;;;;;;6.22;5.63;;;;;;;;;;5002357;28;20386;-87
2022/10/25 06:00:11;;;;;;;5.40;4.90;;;;;;;;;;5002843;28;20456;-86
2022/10/25 06:02:40;;;;;;;5.00;4.53;;;;;;;;;;5000058;28;20407;-87
2022/10/25 06:05:09;;;;;;;5.03;4.60;;;;;;;;;;5015674;28;20773;-88
2022/10/25 06:07:35;;;;;;;5.25;4.75;;;;;;;;;;4996745;28;20414;-87
2022/10/25 06:10:01;;;;;;;5.40;5.00;;;;;;;;;;5001128;28;20488;-88
2022/10/25 06:12:27;;;;;;;6.15;5.55;;;;;;;;;;5017593;28;20383;-86
2022/10/25 06:14:53;;;;;;;6.50;6.00;;;;;;;;;;4998337;28;20433;-86
2022/10/25 06:17:19;;;;;;;7.45;6.75;;;;;;;;;;5000087;28;20390;-86
2022/10/25 06:19:45;;;;;;;7.90;6.88;;;;;;;;;;5008442;28;20888;-87
2022/10/25 06:22:11;;;;;;;7.53;6.93;;;;;;;;;;5035277;28;20411;-87
2022/10/25 06:24:37;;;;;;;8.32;7.72;;;;;;;;;;5035393;28;20885;-87
2022/10/25 06:27:03;;;;;;;8.43;7.65;;;;;;;;;;5035499;28;20382;-87
2022/10/25 06:29:29;;;;;;;14.90;10.50;;;;;;;;;;5035631;28;20391;-86
2022/10/25 06:31:55;;;;;;;13.60;12.20;;;;;;;;;;5035226;28;20462;-86
2022/10/25 06:34:21;;;;;;;17.83;14.93;;;;;;;;;;5026510;28;20393;-86
2022/10/25 06:36:47;;;;;;;15.13;13.00;;;;;;;;;;5023502;28;20402;-86
2022/10/25 06:39:13;;;;;;;11.13;10.13;;;;;;;;;;4997821;28;20457;-86
2022/10/25 06:41:39;;;;;;;11.32;10.13;;;;;;;;;;5004426;28;20467;-86
2022/10/25 06:44:06;;;;;;;23.15;10.82;;;;;;;;;;4996089;28;20394;-87
2022/10/25 06:46:33;;;;;;;15.45;10.30;;;;;;;;;;5023688;28;20376;-86
2022/10/25 06:49:00;;;;;;;13.50;9.57;;;;;;;;;;5012167;28;20375;-87
2022/10/25 06:51:27;;;;;;;10.57;9.68;;;;;;;;;;5014886;28;20438;-87
2022/10/25 06:53:57;;;;;;;9.38;8.68;;;;;;;;;;5016472;28;20478;-86
2022/10/25 06:56:23;;;;;;;10.05;8.95;;;;;;;;;;5027120;28;20388;-87
2022/10/25 06:58:50;;;;;;;10.43;8.68;;;;;;;;;;5022810;28;20399;-86
2022/10/25 07:01:17;;;;;;;9.77;8.88;;;;;;;;;;4996749;28;20493;-86
2022/10/25 07:03:44;;;;;;;10.83;8.30;;;;;;;;;;4997541;28;20445;-86
2022/10/25 07:06:12;;;;;;;8.95;8.10;;;;;;;;;;4994765;28;20386;-87
2022/10/25 07:08:42;;;;;;;8.35;7.47;;;;;;;;;;5026895;28;20406;-87
2022/10/25 07:11:18;;;;;;;8.68;7.97;;;;;;;;;;5034470;28;20414;-86
2022/10/25 07:13:44;;;;;;;10.07;9.27;;;;;;;;;;5034585;28;20375;-87
2022/10/25 07:16:18;;;;;;;9.35;8.60;;;;;;;;;;5034407;28;20416;-86
2022/10/25 07:18:47;;;;;;;10.25;9.35;;;;;;;;;;5034500;28;20379;-86
2022/10/25 07:21:22;;;;;;;11.52;9.02;;;;;;;;;;5034102;28;20414;-85
2022/10/25 07:23:53;;;;;;;10.98;9.93;;;;;;;;;;5034571;28;20433;-86
2022/10/25 07:26:22;;;;;;;13.13;11.48;;;;;;;;;;5034317;28;20383;-87
2022/10/25 07:28:51;;;;;;;11.25;10.13;;;;;;;;;;5034307;28;20450;-86
2022/10/25 07:31:22;;;;;;;10.65;9.65;;;;;;;;;;5029072;28;20387;-84
2022/10/25 07:33:49;;;;;;;11.05;9.95;;;;;;;;;;5028422;28;20388;-85
2022/10/25 07:36:15;;;;;;;11.80;10.60;;;;;;;;;;5012243;28;20421;-85
2022/10/25 07:38:44;;;;;;;11.75;9.93;;;;;;;;;;5022239;28;20379;-85
2022/10/25 07:41:16;;;;;;;11.30;10.30;;;;;;;;;;5033948;28;20556;-85
2022/10/25 07:43:44;;;;;;;11.40;10.40;;;;;;;;;;5003328;28;20384;-85
2022/10/25 07:46:10;;;;;;;12.32;11.13;;;;;;;;;;5026868;28;20409;-85
2022/10/25 07:48:36;;;;;;;11.32;10.23;;;;;;;;;;5033029;28;20391;-86
2022/10/25 07:51:03;;;;;;;12.80;11.50;;;;;;;;;;5033860;28;20430;-85
2022/10/25 07:53:30;;;;;;;11.73;10.40;;;;;;;;;;5033794;28;20456;-86
2022/10/25 07:55:56;;;;;;;11.65;10.65;;;;;;;;;;5018590;28;20393;-85
2022/10/25 07:58:27;;;;;;;11.88;10.77;;;;;;;;;;5029390;28;20457;-86
2022/10/25 08:01:04;;;;;;;11.07;10.10;;;;;;;;;;5023141;28;20405;-86
2022/10/25 08:03:33;;;;;;;10.90;10.00;;;;;;;;;;5028561;28;20395;-84
2022/10/25 08:05:59;;;;;;;11.30;10.40;;;;;;;;;;5014443;28;20880;-84
2022/10/25 08:08:25;;;;;;;11.70;10.70;;;;;;;;;;5027615;28;20410;-84
2022/10/25 08:10:51;;;;;;;12.10;10.90;;;;;;;;;;5021122;28;20419;-84
2022/10/25 08:13:20;;;;;;;11.95;10.75;;;;;;;;;;5033384;28;20781;-84
2022/10/25 08:15:50;;;;;;;11.60;10.60;;;;;;;;;;5022650;28;20890;-84
2022/10/25 08:18:18;;;;;;;11.88;10.80;;;;;;;;;;5030080;28;20387;-83
2022/10/25 08:20:44;;;;;;;11.43;10.38;;;;;;;;;;5025091;28;20742;-84
2022/10/25 08:23:10;;;;;;;12.25;11.25;;;;;;;;;;5031364;28;20375;-83
2022/10/25 08:25:36;;;;;;;12.82;11.55;;;;;;;;;;5033183;28;20387;-84
2022/10/25 08:28:05;;;;;;;12.77;11.57;;;;;;;;;;5023898;28;20471;-83
2022/10/25 08:30:36;;;;;;;12.32;11.10;;;;;;;;;;5025226;28;20384;-84
2022/10/25 08:33:02;;;;;;;11.70;10.60;;;;;;;;;;5033252;28;20983;-85
2022/10/25 08:35:37;;;;;;;11.82;10.73;;;;;;;;;;5022202;28;20904;-85
2022/10/25 08:38:03;;;;;;;12.05;11.02;;;;;;;;;;5007274;28;20381;-86
2022/10/25 08:40:38;;;;;;;12.82;11.52;;;;;;;;;;5031765;28;20391;-87
2022/10/25 08:43:07;;;;;;;12.80;11.55;;;;;;;;;;5032010;28;20471;-85
2022/10/25 08:45:44;;;;;;;11.87;10.67;;;;;;;;;;5020445;28;21014;-85
2022/10/25 08:48:19;;;;;;;12.95;11.73;;;;;;;;;;5029328;28;20379;-85
2022/10/25 08:50:54;;;;;;;14.07;12.50;;;;;;;;;;5027472;28;20465;-85
2022/10/25 08:53:25;;;;;;;13.80;12.40;;;;;;;;;;5032971;28;20379;-85
2022/10/25 08:56:03;;;;;;;14.35;12.43;;;;;;;;;;5032665;28;20397;-84
2022/10/25 08:58:32;;;;;;;14.63;12.45;;;;;;;;;;5032939;28;20387;-86
2022/10/25 09:01:00;;;;;;;12.98;11.70;;;;;;;;;;5015960;28;20412;-87
2022/10/25 09:03:27;;;;;;;12.65;11.50;;;;;;;;;;5020661;28;20390;-87
2022/10/25 09:06:02;;;;;;;12.95;11.75;;;;;;;;;;5032520;28;20470;-87
2022/10/25 09:08:34;;;;;;;13.18;11.85;;;;;;;;;;5032608;28;20902;-87
2022/10/25 09:11:06;;;;;;;13.07;11.77;;;;;;;;;;5032397;28;20390;-87
2022/10/25 09:14:04;;;;;;;11.27;10.23;;;;;;;;;;5012971;28;20417;-87
2022/10/25 09:16:52;;;;;;;10.20;9.40;;;;;;;;;;5032621;28;20493;-87
2022/10/25 09:19:25;;;;;;;11.63;10.43;;;;;;;;;;5030956;28;20418;-87
2022/10/25 09:22:03;;;;;;;12.55;10.07;;;;;;;;;;5025640;28;20892;-87
2022/10/25 09:24:46;;;;;;;11.77;10.57;;;;;;;;;;5020863;28;20381;-87
2022/10/25 09:27:19;;;;;;;10.32;9.38;;;;;;;;;;5032495;28;20871;-87
2022/10/25 09:29:58;;;;;;;11.48;10.25;;;;;;;;;;5030532;28;20422;-87
2022/10/25 09:32:39;;;;;;;12.55;11.25;;;;;;;;;;5032074;28;20878;-88
2022/10/25 09:35:06;;;;;;;11.93;10.68;;;;;;;;;;5032067;28;20383;-87
2022/10/25 09:37:41;;;;;;;12.40;10.60;;;;;;;;;;5031961;28;20464;-87
2022/10/25 09:40:12;;;;;;;10.10;8.80;;;;;;;;;;5032077;28;20414;-87
2022/10/25 09:42:52;;;;;;;10.20;9.30;;;;;;;;;;5030639;28;20764;-87
2022/10/25 09:45:44;;;;;;;9.00;8.27;;;;;;;;;;5030720;28;20857;-88
2022/10/25 09:48:30;;;;;;;8.88;8.00;;;;;;;;;;5027095;28;20402;-87
2022/10/25 09:51:06;;;;;;;8.50;7.50;;;;;;;;;;5026543;28;20393;-88
2022/10/25 09:53:34;;;;;;;12.30;7.88;;;;;;;;;;5024847;28;20387;-87
2022/10/25 09:56:04;;;;;;;11.35;9.60;;;;;;;;;;5021475;28;20387;-88
2022/10/25 09:58:31;;;;;;;8.68;7.88;;;;;;;;;;5031805;28;20391;-87
2022/10/25 10:01:07;;;;;;;7.25;6.65;;;;;;;;;;5031962;28;20450;-88
2022/10/25 10:03:34;;;;;;;7.67;6.87;;;;;;;;;;5027159;28;20377;-87
2022/10/25 10:06:08;;;;;;;7.68;6.97;;;;;;;;;;5019272;28;20383;-88
2022/10/25 10:08:35;;;;;;;7.15;6.50;;;;;;;;;;5031671;28;20441;-88
2022/10/25 10:11:06;;;;;;;7.03;6.43;;;;;;;;;;5031754;28;20414;-87
2022/10/25 10:13:49;;;;;;;6.72;6.13;;;;;;;;;;5031965;28;20864;-87
2022/10/25 10:16:18;;;;;;;6.93;6.28;;;;;;;;;;5031756;28;20379;-87
2022/10/25 10:18:47;;;;;;;7.25;6.50;;;;;;;;;;5027522;28;20737;-87
2022/10/25 10:21:20;;;;;;;6.83;6.17;;;;;;;;;;5018137;28;20407;-88
2022/10/25 10:23:46;;;;;;;7.10;6.35;;;;;;;;;;5023664;28;20476;-87
2022/10/25 10:26:12;;;;;;;6.72;6.18;;;;;;;;;;5030105;28;20781;-88
2022/10/25 10:28:43;;;;;;;6.50;5.90;;;;;;;;;;5031725;28;20407;-87
2022/10/25 10:31:09;;;;;;;7.03;6.32;;;;;;;;;;5031458;28;20379;-87
2022/10/25 10:33:37;;;;;;;6.55;5.95;;;;;;;;;;5031629;28;20390;-87
2022/10/25 10:36:28;;;;;;;6.88;6.28;;;;;;;;;;5031539;28;20415;-87
2022/10/25 10:38:55;;;;;;;6.65;5.95;;;;;;;;;;5032027;28;20379;-87
2022/10/25 10:41:28;;;;;;;7.07;5.90;;;;;;;;;;5032431;28;20963;-87
2022/10/25 10:44:11;;;;;;;5.07;4.30;;;;;;;;;;5035252;28;20864;-87
2022/10/25 10:46:43;;;;;;;4.63;4.05;;;;;;;;;;5034886;28;20390;-87
2022/10/25 10:49:12;;;;;;;4.95;4.45;;;;;;;;;;5035174;28;20922;-87
2022/10/25 10:51:42;;;;;;;4.30;3.90;;;;;;;;;;5016200;28;21162;-86
2022/10/25 10:54:18;;;;;;;6.53;4.70;;;;;;;;;;5027648;28;20962;-87
2022/10/25 10:56:54;;;;;;;5.07;3.60;;;;;;;;;;5028715;28;20390;-89
2022/10/25 10:59:29;;;;;;;5.97;3.85;;;;;;;;;;5021913;28;20384;-87
2022/10/25 11:01:55;;;;;;;5.70;3.70;;;;;;;;;;5034480;28;20480;-87
2022/10/25 11:04:27;;;;;;;4.68;3.60;;;;;;;;;;5018900;28;20381;-88
2022/10/25 11:07:12;;;;;;;3.90;3.60;;;;;;;;;;5016845;28;20376;-87
2022/10/25 11:09:38;;;;;;;4.00;3.60;;;;;;;;;;5014475;28;20411;-87
2022/10/25 11:12:10;;;;;;;3.80;3.50;;;;;;;;;;5016582;28;20471;-86
2022/10/25 11:14:36;;;;;;;3.53;2.77;;;;;;;;;;5015283;28;20372;-86
2022/10/25 11:17:24;;;;;;;5.85;3.47;;;;;;;;;;5014827;28;20496;-86
2022/10/25 11:20:08;;;;;;;5.85;3.60;;;;;;;;;;5012684;28;20379;-85
2022/10/25 11:22:51;;;;;;;3.22;2.92;;;;;;;;;;5034337;28;20439;-85
2022/10/25 11:25:31;;;;;;;8.63;3.10;;;;;;;;;;5017284;28;20371;-85
2022/10/25 11:28:16;;;;;;;4.10;2.90;;;;;;;;;;5022840;28;20383;-86
2022/10/25 11:30:53;;;;;;;3.58;2.90;;;;;;;;;;5034165;28;20387;-85
2022/10/25 11:33:31;;;;;;;5.55;3.38;;;;;;;;;;5034284;28;20387;-86
2022/10/25 11:36:07;;;;;;;4.07;2.83;;;;;;;;;;5034119;28;20394;-85
2022/10/25 11:38:39;;;;;;;3.17;2.87;;;;;;;;;;5034200;28;20467;-85
2022/10/25 11:41:24;;;;;;;4.13;2.72;;;;;;;;;;5034099;28;20409;-85
2022/10/25 11:43:53;;;;;;;3.42;3.13;;;;;;;;;;5033955;28;20458;-86
2022/10/25 11:46:38;;;;;;;3.22;2.92;;;;;;;;;;5034071;28;20445;-85
2022/10/25 11:49:12;;;;;;;4.57;3.28;;;;;;;;;;5033956;28;20379;-87
2022/10/25 11:51:38;;;;;;;4.15;3.08;;;;;;;;;;5030511;28;20383;-85
2022/10/25 11:54:25;;;;;;;3.95;2.75;;;;;;;;;;5017304;28;20922;-85
2022/10/25 11:57:06;;;;;;;4.93;2.97;;;;;;;;;;5013006;28;20384;-85
2022/10/25 11:59:38;;;;;;;4.25;2.72;;;;;;;;;;5016405;28;20994;-84
2022/10/25 12:02:25;;;;;;;3.55;2.67;;;;;;;;;;5030165;28;20422;-84
2022/10/25 12:04:52;;;;;;;4.72;3.22;;;;;;;;;;5025311;28;20387;-84
2022/10/25 12:07:31;;;;;;;5.40;2.97;;;;;;;;;;5033492;28;20451;-84
2022/10/25 12:10:09;;;;;;;5.07;3.00;;;;;;;;;;5015777;28;20432;-85
2022/10/25 12:12:56;;;;;;;7.18;3.05;;;;;;;;;;5032289;28;20406;-85
2022/10/25 12:15:24;;;;;;;3.90;3.08;;;;;;;;;;5012513;28;20381;-85
2022/10/25 12:17:51;;;;;;;7.28;2.58;;;;;;;;;;5034436;28;20409;-85
2022/10/25 12:20:20;;;;;;;5.90;3.20;;;;;;;;;;5019215;28;20715;-84
2022/10/25 12:22:48;;;;;;;4.60;3.30;;;;;;;;;;5018295;28;20482;-85
2022/10/25 12:25:18;;;;;;;3.45;2.60;;;;;;;;;;5016324;28;20380;-85
2022/10/25 12:27:45;;;;;;;5.07;2.70;;;;;;;;;;5033171;28;20414;-85
2022/10/25 12:30:16;;;;;;;3.88;2.50;;;;;;;;;;5033167;28;20402;-84
2022/10/25 12:33:11;;;;;;;5.40;3.25;;;;;;;;;;5032951;28;20876;-85
2022/10/25 12:35:42;;;;;;;3.90;2.70;;;;;;;;;;4996793;28;20409;-85
2022/10/25 12:38:12;;;;;;;3.80;2.35;;;;;;;;;;5032933;28;20391;-85
2022/10/25 12:40:41;;;;;;;3.78;2.80;;;;;;;;;;5033017;28;20407;-85
2022/10/25 12:43:20;;;;;;;3.65;2.20;;;;;;;;;;5032804;28;20482;-85
2022/10/25 12:46:06;;;;;;;3.35;2.30;;;;;;;;;;5032875;28;20380;-84
2022/10/25 12:48:32;;;;;;;2.65;2.00;;;;;;;;;;5021082;28;20394;-85
2022/10/25 12:51:10;;;;;;;3.78;1.80;;;;;;;;;;5022092;28;20385;-85
2022/10/25 12:53:36;;;;;;;4.18;1.85;;;;;;;;;;5015777;28;20407;-85
2022/10/25 12:56:23;;;;;;;3.75;2.03;;;;;;;;;;5032919;28;20434;-85
2022/10/25 12:59:09;;;;;;;3.78;2.05;;;;;;;;;;5032590;28;20390;-84
2022/10/25 13:01:56;;;;;;;4.75;2.00;;;;;;;;;;5032430;28;20415;-85
2022/10/25 13:04:45;;;;;;;4.20;2.10;;;;;;;;;;5023407;28;20396;-85
2022/10/25 13:07:15;;;;;;;3.25;1.90;;;;;;;;;;5013299;28;20872;-85
2022/10/25 13:09:44;;;;;;;5.68;2.30;;;;;;;;;;5029748;28;20469;-85
2022/10/25 13:12:21;;;;;;;3.50;2.58;;;;;;;;;;5022992;28;20505;-85
2022/10/25 13:14:52;;;;;;;2.67;2.10;;;;;;;;;;5032448;28;20394;-85
2022/10/25 13:17:18;;;;;;;4.38;2.92;;;;;;;;;;5032327;28;20391;-85
2022/10/25 13:20:15;;;;;;;5.72;2.45;;;;;;;;;;5032495;28;20513;-85
2022/10/25 13:22:44;;;;;;;3.55;1.95;;;;;;;;;;5028248;28;20411;-85
2022/10/25 13:25:13;;;;;;;3.08;1.90;;;;;;;;;;5032273;28;20383;-85
2022/10/25 13:27:40;;;;;;;3.88;2.10;;;;;;;;;;5030962;28;20549;-84
2022/10/25 13:30:11;;;;;;;3.47;2.17;;;;;;;;;;5032172;28;20390;-85
2022/10/25 13:32:41;;;;;;;3.00;2.00;;;;;;;;;;5032023;28;20375;-85
2022/10/25 13:35:20;;;;;;;5.00;2.13;;;;;;;;;;5032371;28;20382;-85
2022/10/25 13:38:11;;;;;;;3.67;1.92;;;;;;;;;;5030700;28;20848;-85
2022/10/25 13:41:21;;;;;;;3.53;2.07;;;;;;;;;;5031921;28;20737;-84
2022/10/25 13:44:05;;;;;;;5.00;2.30;;;;;;;;;;5032237;28;20375;-85
2022/10/25 13:46:36;;;;;;;5.57;2.40;;;;;;;;;;5032008;28;20449;-85
2022/10/25 13:49:21;;;;;;;3.72;2.25;;;;;;;;;;5032063;28;20485;-85
2022/10/25 13:51:50;;;;;;;4.72;2.20;;;;;;;;;;5031902;28;20386;-85
2022/10/25 13:54:19;;;;;;;4.75;2.08;;;;;;;;;;5030470;28;20429;-85
2022/10/25 13:56:52;;;;;;;5.10;2.28;;;;;;;;;;5019791;28;20387;-84
2022/10/25 13:59:41;;;;;;;3.33;1.70;;;;;;;;;;5021805;28;20388;-84
2022/10/25 14:02:17;;;;;;;5.13;1.67;;;;;;;;;;5004770;28;20454;-84
2022/10/25 14:04:49;;;;;;;2.90;1.52;;;;;;;;;;5031834;28;20419;-85
2022/10/25 14:07:34;;;;;;;5.10;1.73;;;;;;;;;;5032042;28;20409;-84
2022/10/25 14:10:08;;;;;;;3.47;1.70;;;;;;;;;;5031891;28;20410;-85
2022/10/25 14:12:35;;;;;;;2.40;1.80;;;;;;;;;;5030347;28;20391;-85
2022/10/25 14:15:08;;;;;;;5.88;1.80;;;;;;;;;;5031863;28;20466;-85
2022/10/25 14:17:44;;;;;;;3.25;1.70;;;;;;;;;;5018889;28;20854;-85
2022/10/25 14:20:30;;;;;;;3.92;1.45;;;;;;;;;;5017253;28;20395;-84
2022/10/25 14:23:01;;;;;;;2.50;1.20;;;;;;;;;;5028765;28;20886;-86
2022/10/25 14:25:35;;;;;;;3.10;1.20;;;;;;;;;;5035542;28;20979;-86
2022/10/25 14:28:29;;;;;;;2.63;1.20;;;;;;;;;;5035514;28;20466;-85
2022/10/25 14:30:59;;;;;;;2.55;1.00;;;;;;;;;;5035368;28;20390;-85
2022/10/25 14:33:51;;;;;;;3.15;1.40;;;;;;;;;;5035403;28;20452;-85
2022/10/25 14:36:49;;;;;;;3.90;1.42;;;;;;;;;;5033484;28;20379;-84
2022/10/25 14:39:34;;;;;;;2.42;1.20;;;;;;;;;;5035252;28;20388;-85
2022/10/25 14:42:01;;;;;;;2.53;1.52;;;;;;;;;;5029300;28;20405;-85
2022/10/25 14:44:34;;;;;;;3.83;1.30;;;;;;;;;;5033193;28;20383;-85
2022/10/25 14:47:02;;;;;;;1.70;1.27;;;;;;;;;;5034110;28;20733;-84
2022/10/25 14:49:28;;;;;;;3.33;1.30;;;;;;;;;;5035104;28;20391;-84
2022/10/25 14:52:06;;;;;;;5.30;1.23;;;;;;;;;;5030327;28;20388;-84
2022/10/25 14:54:33;;;;;;;4.47;1.50;;;;;;;;;;5019381;28;20387;-84
2022/10/25 14:57:03;;;;;;;4.13;1.40;;;;;;;;;;5034912;28;20402;-85
2022/10/25 14:59:37;;;;;;;3.75;1.40;;;;;;;;;;5026152;28;20398;-84
2022/10/25 15:02:19;;;;;;;2.80;1.10;;;;;;;;;;5034625;28;20411;-84
2022/10/25 15:04:46;;;;;;;3.25;1.40;;;;;;;;;;5034772;28;20403;-85
2022/10/25 15:07:21;;;;;;;4.53;1.92;;;;;;;;;;5033508;28;20896;-85
2022/10/25 15:09:48;;;;;;;3.30;1.70;;;;;;;;;;5016429;28;20388;-85
2022/10/25 15:12:24;;;;;;;2.40;1.70;;;;;;;;;;5014565;28;20846;-85
2022/10/25 15:14:50;;;;;;;4.13;2.15;;;;;;;;;;5027783;28;20383;-85
2022/10/25 15:17:27;;;;;;;3.60;2.17;;;;;;;;;;5021351;28;20389;-85
2022/10/25 15:20:02;;;;;;;4.25;1.95;;;;;;;;;;5015652;28;20393;-85
2022/10/25 15:22:36;;;;;;;3.33;2.35;;;;;;;;;;5007448;28;20417;-84
2022/10/25 15:25:18;;;;;;;3.65;2.28;;;;;;;;;;5025143;28;20485;-85
2022/10/25 15:27:47;;;;;;;4.45;2.20;;;;;;;;;;5016966;28;20382;-84
2022/10/25 15:30:31;;;;;;;2.67;1.92;;;;;;;;;;5034202;28;20391;-83
2022/10/25 15:33:00;;;;;;;3.17;2.22;;;;;;;;;;5012026;28;20385;-84
2022/10/25 15:35:30;;;;;;;5.25;2.20;;;;;;;;;;5026146;28;20743;-84
2022/10/25 15:37:59;;;;;;;3.10;2.13;;;;;;;;;;5029061;28;20454;-82
2022/10/25 15:40:31;;;;;;;4.00;2.60;;;;;;;;;;5034302;28;20379;-82
2022/10/25 15:43:02;;;;;;;7.97;5.65;;;;;;;;;;5022068;28;20413;-82
2022/10/25 15:45:39;;;;;;;9.55;6.60;;;;;;;;;;5007045;28;20371;-83
2022/10/25 15:48:12;;;;;;;10.68;8.23;;;;;;;;;;5034073;28;20871;-83
2022/10/25 15:50:42;;;;;;;10.68;7.75;;;;;;;;;;5034120;28;20425;-82
2022/10/25 15:53:14;;;;;;;8.35;6.35;;;;;;;;;;5025193;28;20381;-83
2022/10/25 15:55:40;;;;;;;7.65;6.00;;;;;;;;;;5017177;28;20379;-83
2022/10/25 15:58:06;;;;;;;9.68;6.60;;;;;;;;;;5033810;28;20428;-83
2022/10/25 16:00:33;;;;;;;7.63;5.80;;;;;;;;;;5033507;28;20395;-83
2022/10/25 16:03:07;;;;;;;9.90;7.75;;;;;;;;;;5033575;28;20391;-83
2022/10/25 16:05:37;;;;;;;7.22;3.80;;;;;;;;;;5033746;28;20383;-82
2022/10/25 16:08:07;;;;;;;5.93;3.30;;;;;;;;;;5033601;28;20387;-82
2022/10/25 16:10:42;;;;;;;5.55;3.38;;;;;;;;;;5031428;28;20388;-83
2022/10/25 16:13:18;;;;;;;8.18;3.95;;;;;;;;;;5033676;28;20809;-84
2022/10/25 16:15:44;;;;;;;4.05;3.40;;;;;;;;;;5033503;28;20387;-84
2022/10/25 16:18:32;;;;;;;7.05;3.83;;;;;;;;;;5033383;28;20740;-84
2022/10/25 16:21:03;;;;;;;5.60;3.10;;;;;;;;;;5012932;28;20417;-83
2022/10/25 16:23:32;;;;;;;5.87;2.70;;;;;;;;;;5020211;28;20489;-84
2022/10/25 16:25:58;;;;;;;3.90;2.80;;;;;;;;;;5023846;28;20377;-83
2022/10/25 16:28:24;;;;;;;5.43;2.80;;;;;;;;;;5018216;28;20455;-83
2022/10/25 16:30:52;;;;;;;4.03;2.45;;;;;;;;;;5018204;28;20461;-82
2022/10/25 16:33:21;;;;;;;9.18;3.50;;;;;;;;;;5033157;28;20876;-82
2022/10/25 16:35:50;;;;;;;4.80;2.80;;;;;;;;;;5018856;28;20825;-81
2022/10/25 16:38:16;;;;;;;25.97;12.00;;;;;;;;;;5029225;28;20425;-81
2022/10/25 16:40:42;;;;;;;6.10;3.58;;;;;;;;;;5032780;28;20387;-83
2022/10/25 16:43:10;;;;;;;6.47;3.53;;;;;;;;;;5029066;28;20402;-82
2022/10/25 16:45:39;;;;;;;4.57;3.22;;;;;;;;;;5018047;28;20392;-82
2022/10/25 16:48:11;;;;;;;5.45;3.08;;;;;;;;;;5026657;28;20429;-82
2022/10/25 16:50:37;;;;;;;8.00;3.25;;;;;;;;;;5032775;28;20461;-81
2022/10/25 16:53:06;;;;;;;4.88;3.00;;;;;;;;;;5032789;28;20876;-81
2022/10/25 16:55:41;;;;;;;5.82;4.18;;;;;;;;;;5032675;28;20375;-81
2022/10/25 16:58:07;;;;;;;7.53;4.30;;;;;;;;;;5020271;28;20874;-81
2022/10/25 17:00:34;;;;;;;6.47;4.25;;;;;;;;;;5030155;28;20394;-81
2022/10/25 17:03:06;;;;;;;5.75;4.10;;;;;;;;;;5032569;28;20765;-81
2022/10/25 17:05:32;;;;;;;9.45;8.30;;;;;;;;;;5032366;28;20783;-81
2022/10/25 17:07:58;;;;;;;9.23;7.88;;;;;;;;;;5025682;28;20743;-81
2022/10/25 17:10:24;;;;;;;6.45;5.20;;;;;;;;;;5014569;28;20392;-80
2022/10/25 17:12:51;;;;;;;7.97;6.15;;;;;;;;;;5013934;28;20384;-80
2022/10/25 17:15:18;;;;;;;6.75;6.05;;;;;;;;;;5013734;28;20395;-80
2022/10/25 17:17:45;;;;;;;5.85;5.18;;;;;;;;;;5015079;28;20433;-80
2022/10/25 17:20:12;;;;;;;3.50;3.20;;;;;;;;;;5012985;28;20932;-81
2022/10/25 17:22:38;;;;;;;4.63;3.93;;;;;;;;;;5013919;28;20789;-80
2022/10/25 17:25:05;;;;;;;5.10;3.33;;;;;;;;;;5008595;28;20475;-80
2022/10/25 17:27:33;;;;;;;6.47;3.25;;;;;;;;;;5008206;28;20471;-80
2022/10/25 17:29:59;;;;;;;5.28;3.03;;;;;;;;;;5006325;28;20874;-80
2022/10/25 17:32:25;;;;;;;4.05;3.20;;;;;;;;;;5006027;28;20747;-80
2022/10/25 17:34:52;;;;;;;4.60;3.37;;;;;;;;;;5014687;28;20502;-80
2022/10/25 17:37:18;;;;;;;4.15;3.17;;;;;;;;;;4996824;28;20407;-80
2022/10/25 17:39:44;;;;;;;4.90;3.45;;;;;;;;;;5003391;28;20811;-80
2022/10/25 17:42:10;;;;;;;3.45;3.15;;;;;;;;;;4996520;28;20414;-80
2022/10/25 17:44:37;;;;;;;4.28;3.15;;;;;;;;;;4994593;28;20398;-80
2022/10/25 17:47:03;;;;;;;4.90;3.28;;;;;;;;;;4996801;28;20398;-80
2022/10/25 17:49:29;;;;;;;6.43;3.85;;;;;;;;;;5008698;28;20426;-81
2022/10/25 17:51:55;;;;;;;5.53;3.58;;;;;;;;;;5001516;28;20545;-81
2022/10/25 17:54:21;;;;;;;5.97;3.30;;;;;;;;;;4996297;28;20414;-81
2022/10/25 17:56:47;;;;;;;5.22;3.72;;;;;;;;;;5005717;28;20379;-81
2022/10/25 17:59:13;;;;;;;5.93;3.70;;;;;;;;;;5010447;28;20400;-81
2022/10/25 18:01:39;;;;;;;5.83;3.70;;;;;;;;;;5015244;28;20771;-81
2022/10/25 18:04:05;;;;;;;11.23;6.97;;;;;;;;;;5018937;28;20401;-81
2022/10/25 18:06:31;;;;;;;16.83;9.48;;;;;;;;;;5006586;28;20864;-81
2022/10/25 18:08:58;;;;;;;83.32;46.22;;;;;;;;;;5002968;28;20538;-79
2022/10/25 18:11:25;;;;;;;20.55;13.52;;;;;;;;;;5011528;28;20432;-79
2022/10/25 18:13:52;;;;;;;40.38;23.92;;;;;;;;;;5017255;28;20432;-79
2022/10/25 18:16:20;;;;;;;83.73;47.50;;;;;;;;;;5012311;28;20914;-79
2022/10/25 18:18:47;;;;;;;49.63;30.08;;;;;;;;;;5008361;28;20440;-79
2022/10/25 18:21:14;;;;;;;45.95;27.48;;;;;;;;;;5011800;28;20570;-79
2022/10/25 18:23:41;;;;;;;39.88;26.25;;;;;;;;;;5013619;28;20396;-79
2022/10/25 18:26:08;;;;;;;26.52;17.25;;;;;;;;;;5021161;28;20397;-79
2022/10/25 18:28:35;;;;;;;16.50;13.07;;;;;;;;;;5010016;28;20758;-79
2022/10/25 18:31:02;;;;;;;10.43;8.45;;;;;;;;;;5019735;28;20864;-79
2022/10/25 18:33:31;;;;;;;9.68;8.38;;;;;;;;;;5013222;28;20480;-79
2022/10/25 18:35:58;;;;;;;8.40;7.22;;;;;;;;;;5013362;28;20436;-80
2022/10/25 18:38:27;;;;;;;7.35;6.63;;;;;;;;;;5012375;28;20401;-81
2022/10/25 18:40:53;;;;;;;6.45;5.10;;;;;;;;;;5008961;28;20455;-81
2022/10/25 18:43:19;;;;;;;5.80;4.90;;;;;;;;;;5015459;28;20455;-82
2022/10/25 18:45:48;;;;;;;5.43;4.40;;;;;;;;;;5004469;28;20402;-81
2022/10/25 18:48:14;;;;;;;5.25;4.70;;;;;;;;;;5008459;28;20754;-82
2022/10/25 18:50:40;;;;;;;6.93;4.77;;;;;;;;;;5005641;28;20383;-82
2022/10/25 18:53:06;;;;;;;5.78;4.90;;;;;;;;;;5005208;28;20384;-82
2022/10/25 18:55:32;;;;;;;5.35;4.70;;;;;;;;;;5005340;28;20394;-81
2022/10/25 18:58:00;;;;;;;5.10;4.63;;;;;;;;;;4999711;28;20433;-81
2022/10/25 19:00:27;;;;;;;4.47;4.07;;;;;;;;;;5011589;28;20462;-81
2022/10/25 19:02:55;;;;;;;4.38;3.90;;;;;;;;;;5007883;28;21024;-81